createdAt,value
2022-12-18T00:00:10.508Z,101456.13
2022-12-18T00:05:13.360Z,101463.88
2022-12-18T00:10:16.397Z,101467.28
2022-12-18T00:15:19.475Z,101476.69
2022-12-18T00:20:26.640Z,101493.06
2022-12-18T00:25:29.586Z,101507.78
2022-12-18T00:30:32.434Z,101517.31
2022-12-18T00:35:35.387Z,101527.84
2022-12-18T00:40:38.322Z,101533.09
2022-12-18T00:45:42.206Z,101538.47
2022-12-18T00:50:45.232Z,101542.09
2022-12-18T00:55:48.462Z,101546.53
2022-12-18T01:00:51.304Z,101552.63
2022-12-18T01:05:54.284Z,101566.50
2022-12-18T01:10:57.196Z,101576.88
2022-12-18T01:16:00.697Z,101568.19
2022-12-18T01:21:12.948Z,101575.91
2022-12-18T01:26:17.442Z,101578.38
2022-12-18T01:31:24.350Z,101586.94
2022-12-18T01:36:30.832Z,101590.34
2022-12-18T01:41:54.425Z,101593.84
2022-12-18T01:46:57.383Z,101588.75
2022-12-18T01:52:00.407Z,101600.97
2022-12-18T01:57:03.541Z,101597.72
2022-12-18T02:02:07.344Z,101603.09
2022-12-18T02:08:13.552Z,101608.50
2022-12-18T02:14:23.773Z,101629.50
2022-12-18T02:19:30.216Z,101631.44
2022-12-18T02:25:14.126Z,101638.59
2022-12-18T02:30:18.398Z,101642.25
2022-12-18T02:35:30.069Z,101653.53
2022-12-18T02:40:33.883Z,101651.03
2022-12-18T02:45:36.957Z,101663.19
2022-12-18T02:50:50.205Z,101658.97
2022-12-18T02:56:25.400Z,101672.91
2022-12-18T03:02:19.512Z,101675.59
2022-12-18T03:07:37.769Z,101679.25
2022-12-18T03:12:55.601Z,101693.16
2022-12-18T03:18:23.900Z,101696.72
2022-12-18T03:23:35.956Z,101708.97
2022-12-18T03:28:46.986Z,101716.03
2022-12-18T03:33:57.738Z,101717.97
2022-12-18T03:39:00.740Z,101718.97
2022-12-18T03:44:34.761Z,101724.28
2022-12-18T03:50:12.282Z,101727.84
2022-12-18T03:55:16.332Z,101743.47
2022-12-18T04:00:20.736Z,101742.72
2022-12-18T04:05:27.185Z,101754.00
2022-12-18T04:10:30.662Z,101747.19
2022-12-18T04:15:37.553Z,101750.72
2022-12-18T04:20:40.577Z,101751.63
2022-12-18T04:25:43.578Z,101747.34
2022-12-18T04:30:49.223Z,101759.38
2022-12-18T04:35:52.264Z,101763.75
2022-12-18T04:40:55.101Z,101776.69
2022-12-18T04:46:09.362Z,101784.50
2022-12-18T04:51:12.398Z,101798.22
2022-12-18T04:56:16.725Z,101793.00
2022-12-18T05:01:20.521Z,101802.44
2022-12-18T05:06:23.431Z,101815.44
2022-12-18T05:11:26.302Z,101818.03
2022-12-18T05:16:29.334Z,101813.78
2022-12-18T05:21:32.373Z,101819.91
2022-12-18T05:26:35.802Z,101827.72
2022-12-18T05:31:39.810Z,101831.22
2022-12-18T05:36:42.981Z,101837.28
2022-12-18T05:41:46.184Z,101835.59
2022-12-18T05:46:49.879Z,101850.25
2022-12-18T05:51:52.759Z,101858.84
2022-12-18T05:56:55.535Z,101865.72
2022-12-18T06:01:58.651Z,101877.81
2022-12-18T06:07:04.140Z,101888.16
2022-12-18T06:12:07.472Z,101886.50
2022-12-18T06:17:10.390Z,101889.09
2022-12-18T06:22:13.352Z,101902.06
2022-12-18T06:27:16.214Z,101898.66
2022-12-18T06:44:00.314Z,101920.75
2022-12-18T06:49:03.939Z,101921.50
2022-12-18T06:54:06.873Z,101936.91
2022-12-18T06:59:09.753Z,101941.13
2022-12-18T07:04:13.074Z,101947.09
2022-12-18T07:09:15.993Z,101954.00
2022-12-18T07:14:19.752Z,101962.59
2022-12-18T07:19:25.663Z,101972.94
2022-12-18T07:24:29.439Z,101969.47
2022-12-18T07:29:32.490Z,101981.38
2022-12-18T07:34:35.853Z,101990.22
2022-12-18T07:39:39.579Z,101990.22
2022-12-18T07:44:42.547Z,101996.06
2022-12-18T07:49:45.334Z,102008.75
2022-12-18T07:54:50.921Z,102020.56
2022-12-18T07:59:53.868Z,102020.97
2022-12-18T08:04:56.723Z,102015.56
2022-12-18T08:09:59.559Z,102029.16
2022-12-18T08:15:02.735Z,102037.66
2022-12-18T08:20:06.357Z,102029.69
2022-12-18T08:25:10.202Z,102029.50
2022-12-18T08:30:13.636Z,102037.88
2022-12-18T08:35:18.811Z,102037.03
2022-12-18T08:40:21.747Z,102030.16
2022-12-18T08:45:25.807Z,102040.59
2022-12-18T08:50:29.210Z,102046.97
2022-12-18T08:55:32.271Z,102042.56
2022-12-18T09:00:35.193Z,102055.69
2022-12-18T09:05:38.079Z,102053.53
2022-12-18T09:10:49.699Z,102066.44
2022-12-18T09:15:55.432Z,102082.34
2022-12-18T09:20:58.319Z,102075.81
2022-12-18T09:26:01.438Z,102085.66
2022-12-18T09:31:09.884Z,102078.22
2022-12-18T09:36:17.694Z,102082.72
2022-12-18T09:41:48.402Z,102083.66
2022-12-18T09:47:20.058Z,102066.34
2022-12-18T09:52:41.291Z,102070.59
2022-12-18T09:57:53.379Z,102071.44
2022-12-18T10:03:15.263Z,102066.13
2022-12-18T10:09:21.669Z,102075.53
2022-12-18T10:14:57.434Z,102073.66
2022-12-18T10:20:17.104Z,102071.00
2022-12-18T10:25:41.072Z,102078.59
2022-12-18T10:30:44.657Z,102072.34
2022-12-18T10:35:51.403Z,102066.97
2022-12-18T10:40:58.566Z,102070.16
2022-12-18T10:46:09.814Z,102076.78
2022-12-18T10:51:31.657Z,102069.91
2022-12-18T10:56:37.818Z,102057.94
2022-12-18T11:01:58.836Z,102055.97
2022-12-18T11:07:09.061Z,102044.59
2022-12-18T11:12:11.881Z,102037.53
2022-12-18T11:17:26.715Z,102040.97
2022-12-18T11:22:36.349Z,102037.34
2022-12-18T11:27:41.210Z,102048.56
2022-12-18T11:33:02.248Z,102044.91
2022-12-18T11:38:36.168Z,102036.09
2022-12-18T11:43:47.319Z,102029.94
2022-12-18T11:49:36.033Z,102020.16
2022-12-18T11:54:39.719Z,102016.53
2022-12-18T12:00:12.805Z,102025.94
2022-12-18T12:05:49.846Z,102020.53
2022-12-18T12:11:20.539Z,102015.16
2022-12-18T12:16:33.775Z,102008.03
2022-12-18T12:22:05.718Z,102008.88
2022-12-18T12:28:05.844Z,102008.88
2022-12-18T12:33:32.543Z,102005.50
2022-12-18T12:38:52.264Z,102007.25
2022-12-18T12:44:00.304Z,102017.69
2022-12-18T12:49:11.030Z,102027.25
2022-12-18T12:54:25.850Z,102043.81
2022-12-18T13:00:04.178Z,102049.91
2022-12-18T13:05:35.382Z,102057.78
2022-12-18T13:10:43.189Z,102063.06
2022-12-18T13:16:06.568Z,102062.22
2022-12-18T13:21:28.076Z,102061.50
2022-12-18T13:26:32.970Z,102072.09
2022-12-18T13:31:42.201Z,102078.28
2022-12-18T13:36:47.298Z,102078.38
2022-12-18T13:42:32.394Z,102085.41
2022-12-18T13:47:39.032Z,102082.00
2022-12-18T13:52:44.645Z,102090.03
2022-12-18T13:57:47.560Z,102083.28
2022-12-18T14:02:51.987Z,102100.09
2022-12-18T14:08:16.213Z,102092.50
2022-12-18T14:13:34.978Z,102091.84
2022-12-18T14:18:45.335Z,102102.59
2022-12-18T14:23:48.461Z,102095.13
2022-12-18T14:28:51.998Z,102108.56
2022-12-18T14:33:55.527Z,102115.88
2022-12-18T14:39:00.353Z,102122.34
2022-12-18T14:44:09.427Z,102129.59
2022-12-18T14:49:35.217Z,102138.56
2022-12-18T14:54:39.333Z,102142.34
2022-12-18T14:59:42.442Z,102136.59
2022-12-18T15:04:46.023Z,102155.97
2022-12-18T15:10:14.116Z,102157.94
2022-12-18T15:15:38.325Z,102167.75
2022-12-18T15:20:50.294Z,102174.91
2022-12-18T15:26:11.381Z,102175.09
2022-12-18T15:31:14.372Z,102184.03
2022-12-18T15:36:21.337Z,102191.25
2022-12-18T15:41:32.868Z,102184.66
2022-12-18T15:46:37.848Z,102199.66
2022-12-18T15:51:41.668Z,102209.41
2022-12-18T15:57:02.885Z,102213.91
2022-12-18T16:02:18.127Z,102215.09
2022-12-18T16:07:24.877Z,102230.09
2022-12-18T16:12:28.628Z,102231.16
2022-12-18T16:17:32.013Z,102240.91
2022-12-18T16:22:34.827Z,102251.44
2022-12-18T16:27:37.712Z,102256.78
2022-12-18T16:32:40.585Z,102254.25
2022-12-18T16:37:44.298Z,102257.81
2022-12-18T16:42:47.721Z,102256.91
2022-12-18T16:47:50.536Z,102276.91
2022-12-18T16:52:53.436Z,102269.28
2022-12-18T16:57:57.413Z,102272.91
2022-12-18T17:03:00.452Z,102266.13
2022-12-18T17:08:03.982Z,102257.63
2022-12-18T17:13:06.864Z,102257.78
2022-12-18T17:18:09.840Z,102263.06
2022-12-18T17:23:12.676Z,102259.69
2022-12-18T17:28:15.564Z,102271.84
2022-12-18T17:33:18.781Z,102273.66
2022-12-18T17:38:21.674Z,102271.97
2022-12-18T17:43:24.565Z,102281.56
2022-12-18T17:48:27.424Z,102286.03
2022-12-18T17:53:31.411Z,102281.75
2022-12-18T17:58:37.826Z,102282.69
2022-12-18T18:03:42.489Z,102277.56
2022-12-18T18:08:45.837Z,102289.69
2022-12-18T18:14:04.656Z,102288.84
2022-12-18T18:19:12.386Z,102283.75
2022-12-18T18:24:20.170Z,102290.69
2022-12-18T18:29:26.911Z,102288.19
2022-12-18T18:34:33.045Z,102286.50
2022-12-18T18:39:36.581Z,102289.06
2022-12-18T18:44:41.369Z,102306.31
2022-12-18T18:49:47.433Z,102313.22
2022-12-18T18:55:11.469Z,102304.63
2022-12-18T19:00:16.488Z,102308.94
2022-12-18T19:05:19.370Z,102321.91
2022-12-18T19:10:22.208Z,102331.44
2022-12-18T19:15:25.178Z,102328.84
2022-12-18T19:20:28.551Z,102339.25
2022-12-18T19:25:40.697Z,102342.75
2022-12-18T19:30:45.928Z,102359.16
2022-12-18T19:35:49.365Z,102353.13
2022-12-18T19:40:52.567Z,102360.91
2022-12-18T19:45:56.347Z,102354.91
2022-12-18T19:50:59.286Z,102367.00
2022-12-18T19:56:11.771Z,102368.78
2022-12-18T20:01:16.918Z,102372.22
2022-12-18T20:06:36.298Z,102373.97
2022-12-18T20:11:41.993Z,102381.75
2022-12-18T20:16:45.198Z,102385.19
2022-12-18T20:21:48.420Z,102401.59
2022-12-18T20:26:51.204Z,102407.63
2022-12-18T20:31:54.269Z,102411.09
2022-12-18T20:36:57.133Z,102418.84
2022-12-18T20:42:00.871Z,102410.22
2022-12-18T20:47:05.747Z,102411.06
2022-12-18T20:52:11.840Z,102415.41
2022-12-18T20:57:15.247Z,102420.56
2022-12-18T21:02:21.286Z,102429.19
2022-12-18T21:07:24.408Z,102439.50
2022-12-18T21:12:42.737Z,102441.22
2022-12-18T21:17:53.914Z,102440.38
2022-12-18T21:22:57.721Z,102443.81
2022-12-18T21:28:07.175Z,102435.19
2022-12-18T21:33:10.992Z,102422.25
2022-12-18T21:38:14.295Z,102424.84
2022-12-18T21:43:35.383Z,102413.63
2022-12-18T21:48:43.350Z,102430.88
2022-12-18T21:53:46.276Z,102415.34
2022-12-18T21:58:56.800Z,102421.38
2022-12-18T22:04:00.353Z,102429.13
2022-12-18T22:09:04.532Z,102425.66
2022-12-18T22:14:07.879Z,102433.38
2022-12-18T22:19:12.524Z,102428.13
2022-12-18T22:24:22.282Z,102425.44
2022-12-18T22:29:44.684Z,102426.13
2022-12-18T22:34:47.559Z,102428.59
2022-12-18T22:39:50.460Z,102439.69
2022-12-18T22:44:53.409Z,102435.25
2022-12-18T22:49:56.317Z,102436.00
2022-12-18T22:54:59.207Z,102441.94
2022-12-18T23:00:02.731Z,102436.66
2022-12-18T23:05:06.866Z,102435.69
2022-12-18T23:10:10.070Z,102429.53
2022-12-18T23:15:12.905Z,102435.53
2022-12-18T23:20:17.651Z,102438.00
2022-12-18T23:25:20.576Z,102436.19
2022-12-18T23:30:23.940Z,102426.63
2022-12-18T23:35:26.880Z,102431.72
2022-12-18T23:40:30.209Z,102430.81
2022-12-18T23:45:38.665Z,102427.25
2022-12-18T23:50:41.500Z,102438.47
2022-12-18T23:55:45.579Z,102432.44
